Asmara, Eritrea
Current Conditions -  °F | °C
As of 9:00 AM on Thursday 23 Oct 2014 (Local Time) from OEGN Reporting Station
Few Clouds Few Clouds  
Wind Chill: 91°   Ceiling: Unl
Heat Index: 108°   Visibility: 6mi
Dew Point: 79°   Wind: 0mph
Humidity: 66%   Direction: NA
Pressure: 29.97"   Gusts: NA
Location:  15.33°N, 38.94°E
Report Text: OEGN 230600Z 00000KT 9999 FEW030 33/26 Q1015 NOSIG
Loading
Personal Weather Stations






























Interactive Weather Map
Tropical Storm Tracking
New forecast layout! Learn more

10-Day Weather Forecast

Advertisements
Track Severe Weather on mobile